Impacts TAF Board
For situational awareness. Not to be used for flight planning purposes.
IDs:

KCVG - Cincinnati Intl, KY, US

Issued at 1446 UTC 10 Aug 2022
Updated at 1510 UTC 10 Aug 2022
Potential Impact None Slight Moderate High
Time1452Z 10/16Z 10/17Z 10/18Z 10/19Z 10/20Z 10/21Z 10/22Z 10/23Z 11/00Z 11/01Z 11/02Z 11/03Z 11/04Z>>
Type OBS PRVL PRVL PRVL PRVL PRVL PRVL PRVL PRVL PRVL PRVL PRVL PRVL PRVL
VIS 7 >6 >6 >6 >6 >6 >6 >6 >6 >6 >6 >6 >6 >6
CIG 9 12 12 28 28 28 35 35 35 -- -- -- -- --
Cover OVC BKN BKN BKN BKN BKN BKN BKN BKN SCT SCT SCT SCT SCT
FltCat IFR MVFR MVFR MVFR MVFR MVFR VFR VFR VFR VFR VFR VFR VFR VFR
WX -- VCSH VCSH VCSH VCSH VCSH -- -- -- -- -- -- -- --
WDir 250 280 280 340 340 340 360 360 360 350 350 350 350 350
WSpd 5 5 5 5 5 5 5 5 5 4 4 4 4 4
WGst -- -- -- -- -- -- -- -- -- -- -- -- -- --
WSHgt -- -- -- -- -- -- -- -- -- -- -- -- -- --
WSDir -- -- -- -- -- -- -- -- -- -- -- -- -- --
WSSpd -- -- -- -- -- -- -- -- -- -- -- -- -- --
Raw TAF
KCVG 101446Z 1015/1118 25005KT 4SM BR VCSH BKN007
  FM101600 28005KT P6SM VCSH BKN012
  FM101800 34005KT P6SM VCSH BKN028
  FM102100 36005KT P6SM BKN035
  FM110000 35004KT P6SM SCT050
  FM110900 33004KT 5SM BR SKC
  FM111300 33006KT P6SM SCT250


Raw METAR
KCVG 101452Z 25005KT 7SM BKN009 BKN017 OVC036 25/23 A3015 RMK AO2 SLP199 T02500228 51009
KCVG 101352Z 25005KT 3SM BR BKN006 OVC007 23/22 A3015 RMK AO2 SFC VIS 4 SLP199 T02330222
KCVG 101344Z 29005KT 3SM BR BKN006 OVC007 23/22 A3014 RMK AO2 SFC VIS 4 T02330222
KCVG 101324Z 26003KT 2SM BR BKN004 OVC005 23/22 A3014 RMK AO2 SFC VIS 4 T02280222
KCVG 101252Z 28004KT 1SM R18C/P6000FT BR BKN003 OVC004 22/22 A3013 RMK AO2 SFC VIS 2 1/2 SLP195 T02220222

METAR Board
Radar Display
Forecast Discussion
For situational awareness. Not to be used for flight planning purposes.